Ohshima Kazumaru — JD2908 — position and weather

sailwx.info

Track history (hours):
 
Tides and Currents Weather Stations Pressure Air Temp Water Temp Dewpoint Dewpoint Depression Visibility Wind Speed Wind Dir Waves Ship Positions

Ohshima Kazumaru

Last reported at 2017-Nov-10 13:55 UTC. Time now 2017-Nov-17 21:28 UTC.
Position N 35°03' E 139°31'.

Length 69 m; draft 4 m.

Type: Cargo ship. MMSI: 431000925.

Date/timePositionNaut miles runAvg speedWind from/ knotsBaromVisibWave heightAir tempDewpointWater temp
2017-Nov-10 13:55N 35°03' E 139°31'410.7
2017-Nov-10 13:30N 35°05' E 139°36'611.1
2017-Nov-10 13:00N 35°07' E 139°42'611.5
2017-Nov-10 12:30N 35°12' E 139°46'611.6
2017-Nov-10 12:00N 35°18' E 139°44'611.8
2017-Nov-10 11:31N 35°24' E 139°42'611.9
2017-Nov-10 11:00N 35°28' E 139°47'3 6.3
2017-Nov-10 10:30N 35°32' E 139°47'0 0.0
2017-Nov-09 23:02N 35°32' E 139°47'0 0.1
2017-Nov-09 23:00N 35°32' E 139°47'2 4.4
2017-Nov-09 22:30N 35°30' E 139°48'1 0.1
2017-Nov-09 08:26N 35°28' E 139°48'0 0.0
2017-Nov-09 08:00N 35°28' E 139°48'0 0.1
2017-Nov-09 07:30N 35°28' E 139°48'0 0.1
2017-Nov-09 06:47N 35°28' E 139°48'0 0.2
2017-Nov-09 06:29N 35°28' E 139°48'0 0.1
2017-Nov-09 05:57N 35°28' E 139°48'0 0.0
2017-Nov-09 05:27N 35°28' E 139°48'0 0.0
2017-Nov-09 01:16N 35°28' E 139°48'0 0.0
2017-Nov-09 00:59N 35°28' E 139°48'0 0.0
2017-Nov-08 22:33N 35°28' E 139°48'0 0.0
2017-Nov-08 19:18N 35°29' E 139°48'0 0.1
2017-Nov-08 19:00N 35°29' E 139°48'0 0.0
2017-Nov-08 18:30N 35°29' E 139°48'0 0.0
2017-Nov-08 18:00N 35°29' E 139°48'2 4.9
2017-Nov-08 17:31N 35°26' E 139°47'612.3
2017-Nov-08 17:01N 35°21' E 139°44'611.3
2017-Nov-08 16:31N 35°15' E 139°47'  
2017-Nov-04 14:23N 34°50' E 139°11'1911.5
2017-Nov-04 12:44N 35°02' E 139°29'312.6
2017-Nov-04 12:29N 35°03' E 139°32'613.4
2017-Nov-04 12:00N 35°07' E 139°39'714.0
2017-Nov-04 11:30N 35°11' E 139°45'612.1
2017-Nov-04 11:00N 35°17' E 139°45'612.7
2017-Nov-04 10:30N 35°24' E 139°42'713.6
2017-Nov-04 10:00N 35°29' E 139°47'3 0.2
2017-Nov-03 21:57N 35°32' E 139°47'2 4.7
2017-Nov-03 21:31N 35°31' E 139°49'0 0.5
2017-Nov-03 21:01N 35°31' E 139°50'0 0.0
2017-Nov-03 20:31N 35°31' E 139°50'0 0.0
2017-Nov-03 20:01N 35°31' E 139°50'0 0.0
2017-Nov-03 19:31N 35°31' E 139°50'0 0.0
2017-Nov-03 19:01N 35°31' E 139°50'0 0.0
2017-Nov-03 18:31N 35°31' E 139°50'0 0.0
2017-Nov-03 17:57N 35°31' E 139°50'0 0.0
2017-Nov-03 17:27N 35°31' E 139°50'0 0.0
2017-Nov-03 16:51N 35°31' E 139°50'0 0.0
2017-Nov-03 16:27N 35°31' E 139°50'1 1.5
2017-Nov-03 15:57N 35°30' E 139°49'612.7
2017-Nov-03 15:30N 35°25' E 139°46'612.6
2017-Nov-03 15:01N 35°19' E 139°44'611.8
2017-Nov-03 14:30N 35°13' E 139°47'611.5
2017-Nov-03 14:00N 35°08' E 139°45'611.8
2017-Nov-03 13:30N 35°03' E 139°41'612.8
2017-Nov-03 13:00N 34°59' E 139°35'714.3
2017-Nov-03 12:30N 34°55' E 139°28'  
Track history (hours):
 
Tides and Currents Weather Stations Pressure Air Temp Water Temp Dewpoint Dewpoint Depression Visibility Wind Speed Wind Dir Waves Ship Positions

Ohshima Kazumaru

Last reported at 2017-Nov-10 13:55 UTC. Time now 2017-Nov-17 21:28 UTC.
Position N 35°03' E 139°31'.

Length 69 m; draft 4 m.

Type: Cargo ship. MMSI: 431000925.

Date/timePositionNaut miles runAvg speedWind from/ knotsBaromVisibWave heightAir tempDewpointWater temp
2017-Nov-10 13:55N 35°03' E 139°31'410.7
2017-Nov-10 13:30N 35°05' E 139°36'611.1
2017-Nov-10 13:00N 35°07' E 139°42'611.5
2017-Nov-10 12:30N 35°12' E 139°46'611.6
2017-Nov-10 12:00N 35°18' E 139°44'611.8
2017-Nov-10 11:31N 35°24' E 139°42'611.9
2017-Nov-10 11:00N 35°28' E 139°47'3 6.3
2017-Nov-10 10:30N 35°32' E 139°47'0 0.0
2017-Nov-09 23:02N 35°32' E 139°47'0 0.1
2017-Nov-09 23:00N 35°32' E 139°47'2 4.4
2017-Nov-09 22:30N 35°30' E 139°48'1 0.1
2017-Nov-09 08:26N 35°28' E 139°48'0 0.0
2017-Nov-09 08:00N 35°28' E 139°48'0 0.1
2017-Nov-09 07:30N 35°28' E 139°48'0 0.1
2017-Nov-09 06:47N 35°28' E 139°48'0 0.2
2017-Nov-09 06:29N 35°28' E 139°48'0 0.1
2017-Nov-09 05:57N 35°28' E 139°48'0 0.0
2017-Nov-09 05:27N 35°28' E 139°48'0 0.0
2017-Nov-09 01:16N 35°28' E 139°48'0 0.0
2017-Nov-09 00:59N 35°28' E 139°48'0 0.0
2017-Nov-08 22:33N 35°28' E 139°48'0 0.0
2017-Nov-08 19:18N 35°29' E 139°48'0 0.1
2017-Nov-08 19:00N 35°29' E 139°48'0 0.0
2017-Nov-08 18:30N 35°29' E 139°48'0 0.0
2017-Nov-08 18:00N 35°29' E 139°48'2 4.9
2017-Nov-08 17:31N 35°26' E 139°47'612.3
2017-Nov-08 17:01N 35°21' E 139°44'611.3
2017-Nov-08 16:31N 35°15' E 139°47'  
2017-Nov-04 14:23N 34°50' E 139°11'1911.5
2017-Nov-04 12:44N 35°02' E 139°29'312.6
2017-Nov-04 12:29N 35°03' E 139°32'613.4
2017-Nov-04 12:00N 35°07' E 139°39'714.0
2017-Nov-04 11:30N 35°11' E 139°45'612.1
2017-Nov-04 11:00N 35°17' E 139°45'612.7
2017-Nov-04 10:30N 35°24' E 139°42'713.6
2017-Nov-04 10:00N 35°29' E 139°47'3 0.2
2017-Nov-03 21:57N 35°32' E 139°47'2 4.7
2017-Nov-03 21:31N 35°31' E 139°49'0 0.5
2017-Nov-03 21:01N 35°31' E 139°50'0 0.0
2017-Nov-03 20:31N 35°31' E 139°50'0 0.0
2017-Nov-03 20:01N 35°31' E 139°50'0 0.0
2017-Nov-03 19:31N 35°31' E 139°50'0 0.0
2017-Nov-03 19:01N 35°31' E 139°50'0 0.0
2017-Nov-03 18:31N 35°31' E 139°50'0 0.0
2017-Nov-03 17:57N 35°31' E 139°50'0 0.0
2017-Nov-03 17:27N 35°31' E 139°50'0 0.0
2017-Nov-03 16:51N 35°31' E 139°50'0 0.0
2017-Nov-03 16:27N 35°31' E 139°50'1 1.5
2017-Nov-03 15:57N 35°30' E 139°49'612.7
2017-Nov-03 15:30N 35°25' E 139°46'612.6
2017-Nov-03 15:01N 35°19' E 139°44'611.8
2017-Nov-03 14:30N 35°13' E 139°47'611.5
2017-Nov-03 14:00N 35°08' E 139°45'611.8
2017-Nov-03 13:30N 35°03' E 139°41'612.8
2017-Nov-03 13:00N 34°59' E 139°35'714.3
2017-Nov-03 12:30N 34°55' E 139°28'  

Dump ship's entire track history